EWG11A EDDK-LEBL
Flight info
| Callsign | EWG11A |
|---|---|
| Flight time | N/A |
| Altitude | 36000 |
| Route | NVO2R NVO Y868 NAVAK Z283 LNO DCT RASCA DCT FAMEN DCT AHVEC/N0444F370 UN857 DISAK DCT DIRMO DCT VALKU DCT ATSUP DCT MINSO DCT DEGOL DCT PPG DCT ALBER |
| Aircraft | A21N/M-SDE2E3FGHIRWXY/LB1 |
Departure
| Time | 2026-04-26 18:28 |
|---|---|
| Airport | Cologne Bonn Airport (EDDK) |
Arrival
| Time | N/A |
|---|---|
| Airport | Josep Tarradellas Barcelona-El Prat Airport (LEBL) |
| Time | Latitude | Longitude | Altitude | Speed | Heading |
|---|---|---|---|---|---|
| 2026-04-26 18:00 | 50.87973 | 7.12434 | 203 ft | 0 kts | 233° |
| 2026-04-26 18:11 | 50.87974 | 7.12437 | 230 ft | 2 kts | 233° |
| 2026-04-26 18:12 | 50.87980 | 7.12450 | 230 ft | 2 kts | 233° |
| 2026-04-26 18:12 | 50.87989 | 7.12469 | 233 ft | 2 kts | 233° |
| 2026-04-26 18:12 | 50.88002 | 7.12484 | 234 ft | 2 kts | 183° |
| 2026-04-26 18:12 | 50.88017 | 7.12484 | 235 ft | 2 kts | 154° |
| 2026-04-26 18:13 | 50.88023 | 7.12479 | 234 ft | 0 kts | 151° |
| 2026-04-26 18:16 | 50.88032 | 7.12471 | 236 ft | 0 kts | 151° |
| 2026-04-26 18:16 | 50.88009 | 7.12495 | 233 ft | 11 kts | 143° |
| 2026-04-26 18:17 | 50.87976 | 7.12537 | 232 ft | 7 kts | 140° |
| 2026-04-26 18:17 | 50.87912 | 7.12606 | 230 ft | 14 kts | 164° |
| 2026-04-26 18:17 | 50.87814 | 7.12642 | 230 ft | 0 kts | 151° |
| 2026-04-26 18:17 | 50.87793 | 7.12663 | 229 ft | 7 kts | 146° |
| 2026-04-26 18:18 | 50.87778 | 7.12681 | 229 ft | 2 kts | 141° |
| 2026-04-26 18:18 | 50.87739 | 7.12739 | 231 ft | 18 kts | 136° |
| 2026-04-26 18:18 | 50.87627 | 7.12902 | 235 ft | 24 kts | 137° |
| 2026-04-26 18:18 | 50.87490 | 7.13101 | 236 ft | 30 kts | 137° |
| 2026-04-26 18:19 | 50.87396 | 7.13238 | 238 ft | 0 kts | 137° |
| 2026-04-26 18:19 | 50.87369 | 7.13276 | 235 ft | 11 kts | 139° |
| 2026-04-26 18:19 | 50.87268 | 7.13420 | 236 ft | 25 kts | 137° |
| 2026-04-26 18:19 | 50.87128 | 7.13621 | 241 ft | 27 kts | 138° |
| 2026-04-26 18:20 | 50.87043 | 7.13743 | 244 ft | 17 kts | 136° |
| 2026-04-26 18:20 | 50.86944 | 7.13891 | 249 ft | 21 kts | 138° |
| 2026-04-26 18:20 | 50.86922 | 7.13923 | 249 ft | 5 kts | 138° |
| 2026-04-26 18:20 | 50.86894 | 7.13962 | 249 ft | 11 kts | 138° |
| 2026-04-26 18:21 | 50.86792 | 7.14105 | 251 ft | 11 kts | 148° |
| 2026-04-26 18:21 | 50.86724 | 7.14160 | 252 ft | 3 kts | 142° |
| 2026-04-26 18:22 | 50.86720 | 7.14165 | 252 ft | 3 kts | 142° |
| 2026-04-26 18:22 | 50.86691 | 7.14204 | 251 ft | 8 kts | 140° |
| 2026-04-26 18:22 | 50.86634 | 7.14281 | 250 ft | 12 kts | 137° |
| 2026-04-26 18:23 | 50.86565 | 7.14381 | 251 ft | 15 kts | 137° |
| 2026-04-26 18:23 | 50.86481 | 7.14505 | 253 ft | 17 kts | 137° |
| 2026-04-26 18:23 | 50.86373 | 7.14659 | 258 ft | 28 kts | 137° |
| 2026-04-26 18:23 | 50.86201 | 7.14913 | 262 ft | 39 kts | 137° |
| 2026-04-26 18:24 | 50.86002 | 7.15201 | 268 ft | 39 kts | 137° |
| 2026-04-26 18:24 | 50.85853 | 7.15417 | 274 ft | 23 kts | 138° |
| 2026-04-26 18:24 | 50.85735 | 7.15583 | 282 ft | 22 kts | 137° |
| 2026-04-26 18:24 | 50.85619 | 7.15755 | 286 ft | 24 kts | 138° |
| 2026-04-26 18:25 | 50.85487 | 7.15941 | 291 ft | 21 kts | 138° |
| 2026-04-26 18:25 | 50.85398 | 7.16069 | 299 ft | 7 kts | 136° |
| 2026-04-26 18:25 | 50.85355 | 7.16159 | 300 ft | 15 kts | 118° |
| 2026-04-26 18:25 | 50.85345 | 7.16352 | 303 ft | 21 kts | 72° |
| 2026-04-26 18:26 | 50.85396 | 7.16469 | 303 ft | 12 kts | 36° |
| 2026-04-26 18:26 | 50.85506 | 7.16523 | 305 ft | 19 kts | 3° |
| 2026-04-26 18:26 | 50.85573 | 7.16489 | 302 ft | 9 kts | 324° |
| 2026-04-26 18:26 | 50.85606 | 7.16445 | 300 ft | 0 kts | 318° |
| 2026-04-26 18:27 | 50.85608 | 7.16443 | 299 ft | 5 kts | 318° |
| 2026-04-26 18:27 | 50.85903 | 7.16015 | 284 ft | 116 kts | 317° |
| 2026-04-26 18:27 | 50.86732 | 7.14822 | 635 ft | 185 kts | 320° |
| 2026-04-26 18:28 | 50.87769 | 7.13433 | 1579 ft | 206 kts | 323° |
| 2026-04-26 18:28 | 50.89010 | 7.11966 | 2458 ft | 235 kts | 326° |
| 2026-04-26 18:28 | 50.90349 | 7.10327 | 3510 ft | 246 kts | 310° |
| 2026-04-26 18:28 | 50.91123 | 7.07957 | 4376 ft | 255 kts | 285° |
| 2026-04-26 18:29 | 50.91216 | 7.05095 | 4878 ft | 261 kts | 263° |
| 2026-04-26 18:29 | 50.90834 | 7.02265 | 5011 ft | 263 kts | 256° |
| 2026-04-26 18:29 | 50.90267 | 6.99537 | 5021 ft | 265 kts | 251° |
| 2026-04-26 18:29 | 50.89607 | 6.96807 | 5022 ft | 266 kts | 250° |
| 2026-04-26 18:30 | 50.88931 | 6.94081 | 5123 ft | 266 kts | 250° |
| 2026-04-26 18:30 | 50.88270 | 6.91344 | 5256 ft | 266 kts | 251° |
| 2026-04-26 18:30 | 50.87634 | 6.88596 | 5267 ft | 266 kts | 252° |
| 2026-04-26 18:30 | 50.87020 | 6.85836 | 5264 ft | 266 kts | 252° |
| 2026-04-26 18:31 | 50.86419 | 6.83066 | 5267 ft | 266 kts | 253° |
| 2026-04-26 18:31 | 50.85826 | 6.80292 | 5264 ft | 266 kts | 253° |
| 2026-04-26 18:31 | 50.85236 | 6.77514 | 5265 ft | 266 kts | 253° |
| 2026-04-26 18:31 | 50.84646 | 6.74741 | 5266 ft | 266 kts | 253° |
| 2026-04-26 18:32 | 50.84052 | 6.71955 | 5417 ft | 271 kts | 253° |
| 2026-04-26 18:32 | 50.83432 | 6.69055 | 6297 ft | 285 kts | 253° |
| 2026-04-26 18:32 | 50.82851 | 6.66066 | 7862 ft | 279 kts | 258° |
| 2026-04-26 18:32 | 50.82488 | 6.63100 | 9609 ft | 273 kts | 265° |
| 2026-04-26 18:33 | 50.82340 | 6.60098 | 10952 ft | 279 kts | 270° |
| 2026-04-26 18:33 | 50.82296 | 6.56892 | 11696 ft | 305 kts | 272° |
| 2026-04-26 18:33 | 50.82323 | 6.53430 | 12570 ft | 323 kts | 273° |
| 2026-04-26 18:33 | 50.82386 | 6.49831 | 13709 ft | 332 kts | 274° |
| 2026-04-26 18:34 | 50.82458 | 6.46130 | 14834 ft | 339 kts | 274° |
| 2026-04-26 18:34 | 50.82527 | 6.42370 | 15965 ft | 345 kts | 273° |
| 2026-04-26 18:34 | 50.82587 | 6.38551 | 17098 ft | 350 kts | 273° |
| 2026-04-26 18:34 | 50.82639 | 6.34678 | 18210 ft | 355 kts | 273° |
| 2026-04-26 18:35 | 50.82686 | 6.30741 | 19166 ft | 360 kts | 273° |
| 2026-04-26 18:35 | 50.82729 | 6.26810 | 19828 ft | 364 kts | 273° |
| 2026-04-26 18:35 | 50.82769 | 6.22801 | 20176 ft | 366 kts | 273° |
| 2026-04-26 18:35 | 50.82808 | 6.18767 | 20261 ft | 367 kts | 273° |
| 2026-04-26 18:36 | 50.82845 | 6.14719 | 20316 ft | 370 kts | 273° |
| 2026-04-26 18:36 | 50.82883 | 6.10618 | 20924 ft | 376 kts | 273° |
| 2026-04-26 18:36 | 50.82921 | 6.06496 | 21970 ft | 376 kts | 272° |
| 2026-04-26 18:36 | 50.82952 | 6.02342 | 22959 ft | 379 kts | 272° |
| 2026-04-26 18:37 | 50.82734 | 5.98159 | 23828 ft | 386 kts | 261° |
| 2026-04-26 18:37 | 50.81886 | 5.94097 | 24528 ft | 395 kts | 246° |
| 2026-04-26 18:37 | 50.80309 | 5.90478 | 25204 ft | 406 kts | 230° |
| 2026-04-26 18:37 | 50.78089 | 5.87631 | 25864 ft | 416 kts | 218° |
| 2026-04-26 18:38 | 50.75621 | 5.85188 | 26490 ft | 422 kts | 214° |
| 2026-04-26 18:38 | 50.73025 | 5.82942 | 27089 ft | 428 kts | 212° |
| 2026-04-26 18:38 | 50.70367 | 5.80772 | 27659 ft | 433 kts | 211° |
| 2026-04-26 18:38 | 50.67675 | 5.78597 | 28247 ft | 437 kts | 211° |
| 2026-04-26 18:39 | 50.64968 | 5.76384 | 28785 ft | 440 kts | 212° |
| 2026-04-26 18:39 | 50.62245 | 5.74114 | 29333 ft | 444 kts | 213° |
| 2026-04-26 18:39 | 50.59649 | 5.71501 | 29843 ft | 443 kts | 221° |
| 2026-04-26 18:39 | 50.57338 | 5.68319 | 30353 ft | 441 kts | 231° |
| 2026-04-26 18:40 | 50.55262 | 5.64767 | 30829 ft | 441 kts | 233° |
| 2026-04-26 18:40 | 50.53274 | 5.61113 | 31457 ft | 438 kts | 235° |
| 2026-04-26 18:40 | 50.51346 | 5.57435 | 32069 ft | 435 kts | 235° |
| 2026-04-26 18:40 | 50.49448 | 5.53764 | 32760 ft | 430 kts | 235° |
| 2026-04-26 18:41 | 50.47593 | 5.50177 | 33414 ft | 427 kts | 235° |
| 2026-04-26 18:41 | 50.47210 | 5.49437 | 33523 ft | 427 kts | 235° |